Allenville, Illinois
Current Conditions -  °F | °C
As of 1:53 PM on Friday 28 Nov 2014 (Local Time) from KMTO Reporting Station
Clear Clear  
Wind Chill: 28°   Ceiling: Unl
Heat Index: 37°   Visibility: 10mi
Dew Point: 28°   Wind: 16mph
Humidity: 70%   Direction: 180°S
Pressure: 30.04"   Gusts: 29mph
Location:  39.5872°N, 88.5835°W
Report Text: KMTO 281953Z AUTO 18014G25KT 10SM CLR 03/M02 A3004 RMK AO2 PK WND 17026/1911 SLP180 T00281022
Loading
Personal Weather Stations






























Interactive Weather Map New forecast layout! Learn more

10-Day Weather Forecast

Advertisements
Track Severe Weather on mobile